• Join FlightAware (Why Join?)
  • Login
  • US Flag 
10:09PM EST


 

Airport Tracker/Info


-or-


 

Live Flight TrackerFlight Track Log ✈ UAL4695 ✈ 15-Apr-2013 ✈ KEWR - KMHT

Flight Track Log - Related Links

Times and Time Zones

All times are in EDT time to prevent confusion due to time zone crossing. See the UAL4695 flight status page for this flight to view local times or setup timezone preferences in your user account.

Time Position Orientation Groundspeed Altitude Reporting Facility
EDT Latitude Longitude Course Direction KTS MPH feet Rate Location/Type
09:52PM 41.3229 -73.4772 37° Northeast  Level FlightAware Approximate
09:53PM 41.3756 -73.4159 45° Northeast  Level FlightAware Approximate
09:54PM 41.4284 -73.3549 37° Northeast  Level FlightAware Approximate
09:55PM 41.4789 -73.2939 21° North  Level FlightAware Approximate
09:56PM 41.5265 -73.2305 56° Northeast  Level FlightAware Approximate
09:57PM 41.5768 -73.1660 41° Northeast  Level FlightAware Approximate
09:58PM 41.6296 -73.1043 41° Northeast  Level FlightAware Approximate
09:59PM 41.6976 -73.1071 340° North  Level FlightAware Approximate
10:00PM 41.7661 -73.1237 354° North  Level FlightAware Approximate
10:01PM 41.8358 -73.1336 354° North  Level FlightAware Approximate
10:02PM 41.9055 -73.1436 354° North  Level FlightAware Approximate
10:03PM 41.9752 -73.1535 354° North  Level FlightAware Approximate
10:04PM 42.0449 -73.1636 354° North  Level FlightAware Approximate
10:05PM 42.1144 -73.1761 352° North  Level FlightAware Approximate
10:06PM 42.1838 -73.1899 352° North  Level FlightAware Approximate
10:07PM 42.2531 -73.2038 352° North  Level FlightAware Approximate
10:08PM 42.3225 -73.2176 352° North  Level FlightAware Approximate
10:09PM 42.3918 -73.2315 352° North  Level FlightAware Approximate
10:10PM 42.4612 -73.2454 352° North  Level FlightAware Approximate
10:11PM 42.5305 -73.2594 352° North  Level FlightAware Approximate
10:12PM 42.5805 -73.2251 66° East  Level FlightAware Approximate
10:13PM 42.6023 -73.1347 73° East  Level FlightAware Approximate
10:14PM 42.6233 -73.0438 73° East  Level FlightAware Approximate
10:15PM 42.6371 -72.9514 71° East  Level FlightAware Approximate
10:16PM 42.6597 -72.8612 71° East  Level FlightAware Approximate
10:17PM 42.6815 -72.7706 72° East  Level FlightAware Approximate
10:18PM 42.7028 -72.6797 72° East  Level FlightAware Approximate
10:19PM 42.7240 -72.5888 72° East  Level FlightAware Approximate
10:20PM 42.7452 -72.4978 72° East  Level FlightAware Approximate
10:21PM 42.7664 -72.4068 72° East  Level FlightAware Approximate
10:22PM 42.7833 -72.3148 90° East  Level FlightAware Approximate
10:23PM 42.7892 -72.2198 83° East  Level FlightAware Approximate
10:24PM 42.7977 -72.1249 83° East  Level FlightAware Approximate
10:25PM 42.8064 -72.0301 83° East  Level FlightAware Approximate
10:26PM 42.8150 -71.9353 83° East  Level FlightAware Approximate
10:27PM 42.8167 -71.8399 90° East  Level FlightAware Approximate
10:28PM 42.8251 -71.7455 78° East  Level FlightAware Approximate
10:29PM 42.8395 -71.6519 78° East  Level FlightAware Approximate
10:30PM 42.8500 -71.5578 90° East  Level FlightAware Approximate
10:31PM 42.8507 -71.4623 77° East  Level FlightAware Approximate
10:32PM 42.8663 -71.3690 77° East  Level FlightAware Approximate
10:33PM 42.9156 -71.4319 316° Northwest  Level FlightAware Approximate
10:34PM 42.9167 -71.4333 316° Northwest  Level FlightAware Approximate
10:35PM 42.9328 -71.4358 316° Northwest  Level Estimated
10:36PM 42.9328 -71.4358 316° Northwest  Level Estimated
10:37PM 42.9328 -71.4358 316° Northwest  Level Estimated
10:38PM 42.9328 -71.4358 316° Northwest  Level Estimated
10:39PM 42.9328 -71.4358 316° Northwest  Level Estimated
10:40PM 42.9328 -71.4358 316° Northwest  Level Estimated
10:41PM 42.9328 -71.4358 316° Northwest  Level Estimated
10:42PM 42.9328 -71.4358 316° Northwest  Level Estimated
10:43PM 42.9328 -71.4358 316° Northwest  Level Estimated
10:44PM 42.9328 -71.4358 316° Northwest  Level Estimated
10:45PM 42.9328 -71.4358 316° Northwest  Level Estimated
10:46PM 42.9328 -71.4358 316° Northwest  Level Estimated
10:47PM 42.9328 -71.4358 316° Northwest  Level Estimated
10:48PM 42.9328 -71.4358 316° Northwest  Level Estimated
10:49PM 42.9328 -71.4358 316° Northwest  Level Estimated